createdAt,value
2023-03-04T00:03:02.742Z,41.70
2023-03-04T00:13:05.880Z,41.40
2023-03-04T00:23:08.968Z,42.80
2023-03-04T00:33:12.021Z,41.00
2023-03-04T00:43:15.160Z,41.30
2023-03-04T00:53:18.145Z,45.10
2023-03-04T01:03:21.461Z,46.30
2023-03-04T01:13:25.526Z,40.20
2023-03-04T01:23:28.615Z,38.30
2023-03-04T01:33:32.606Z,42.00
2023-03-04T01:43:38.059Z,41.60
2023-03-04T01:53:42.238Z,46.10
2023-03-04T02:03:45.404Z,42.50
2023-03-04T02:13:48.589Z,46.70
2023-03-04T02:24:02.005Z,46.60
2023-03-04T02:34:18.296Z,43.20
2023-03-04T02:44:26.299Z,47.90
2023-03-04T02:54:30.533Z,46.20
2023-03-04T03:04:36.718Z,41.00
2023-03-04T03:14:44.370Z,45.00
2023-03-04T03:24:47.952Z,46.70
2023-03-04T03:34:51.234Z,41.00
2023-03-04T03:44:56.747Z,45.90
2023-03-04T03:55:02.258Z,42.70
2023-03-04T04:05:06.194Z,45.20
2023-03-04T04:15:11.981Z,47.20
2023-03-04T04:25:15.133Z,43.10
2023-03-04T04:35:18.369Z,40.20
2023-03-04T04:45:21.502Z,38.50
2023-03-04T04:55:24.621Z,42.70
2023-03-04T05:05:27.596Z,42.20
2023-03-04T05:15:30.859Z,38.00
2023-03-04T05:25:33.933Z,38.20
2023-03-04T05:35:38.579Z,34.40
2023-03-04T05:45:42.255Z,41.60
2023-03-04T05:55:48.847Z,42.20
2023-03-04T06:05:51.927Z,48.80
2023-03-04T06:15:57.003Z,46.10
2023-03-04T06:26:01.931Z,42.50
2023-03-04T06:36:05.566Z,36.00
2023-03-04T06:46:09.562Z,35.90
2023-03-04T06:56:16.404Z,39.20
2023-03-04T07:06:23.477Z,38.00
2023-03-04T07:16:27.230Z,36.80
2023-03-04T07:26:31.502Z,35.10
2023-03-04T07:36:37.064Z,36.40
2023-03-04T07:46:40.851Z,28.60
2023-03-04T07:56:43.920Z,26.10
2023-03-04T08:06:48.989Z,24.70
2023-03-04T08:16:52.122Z,18.10
2023-03-04T08:26:55.426Z,16.30
2023-03-04T08:36:58.640Z,17.90
2023-03-04T08:47:01.765Z,16.00
2023-03-04T08:57:04.994Z,15.80
2023-03-04T09:07:10.666Z,19.10
2023-03-04T09:17:13.795Z,24.10
2023-03-04T09:27:16.913Z,26.50
2023-03-04T09:37:20.092Z,25.10
2023-03-04T09:47:26.301Z,29.70
2023-03-04T09:57:59.438Z,31.30
2023-03-04T10:08:38.468Z,30.30
2023-03-04T10:18:48.941Z,31.20
2023-03-04T10:28:52.374Z,29.80
2023-03-04T10:39:08.369Z,27.90
2023-03-04T10:49:16.554Z,24.30
2023-03-04T10:59:46.391Z,24.00
2023-03-04T11:09:49.641Z,22.70
2023-03-04T11:19:58.548Z,23.00
2023-03-04T11:30:40.175Z,21.30
2023-03-04T11:40:54.074Z,15.70
2023-03-04T11:51:13.087Z,12.80
2023-03-04T12:01:38.270Z,12.10
2023-03-04T12:12:19.622Z,9.60
2023-03-04T12:22:42.737Z,9.70
2023-03-04T12:32:57.943Z,6.60
2023-03-04T12:43:28.385Z,6.00
2023-03-04T12:53:58.035Z,6.10
2023-03-04T13:04:23.746Z,5.50
2023-03-04T13:14:28.895Z,5.70
2023-03-04T13:24:46.725Z,5.80
2023-03-04T13:45:00.442Z,5.90
2023-03-04T13:55:35.491Z,4.90
2023-03-04T14:05:38.570Z,5.30
2023-03-04T14:15:41.721Z,6.10
2023-03-04T14:25:45.239Z,5.90
2023-03-04T14:35:51.725Z,5.60
2023-03-04T14:45:58.344Z,7.30
2023-03-04T14:56:10.879Z,8.30
2023-03-04T15:06:35.263Z,7.10
2023-03-04T15:16:57.994Z,7.50
2023-03-04T15:27:04.337Z,8.00
2023-03-04T15:37:10.126Z,9.20
2023-03-04T15:47:14.154Z,9.60
2023-03-04T15:57:28.021Z,9.50
2023-03-04T16:07:31.655Z,10.20
2023-03-04T16:17:34.680Z,9.50
2023-03-04T16:27:39.607Z,9.30
2023-03-04T16:37:44.956Z,9.50
2023-03-04T16:47:48.229Z,11.50
2023-03-04T16:57:52.389Z,8.30
2023-03-04T17:07:55.651Z,8.40
2023-03-04T17:17:58.653Z,8.30
2023-03-04T17:28:01.940Z,9.90
2023-03-04T17:38:05.049Z,9.10
2023-03-04T17:48:15.340Z,9.00
2023-03-04T17:58:18.879Z,10.30
2023-03-04T18:08:24.156Z,12.10
2023-03-04T18:18:27.319Z,12.20
2023-03-04T18:28:31.391Z,12.30
2023-03-04T18:38:34.826Z,10.40
2023-03-04T18:48:45.687Z,10.90
2023-03-04T18:58:50.665Z,11.80
2023-03-04T19:08:55.548Z,11.80
2023-03-04T19:18:58.692Z,11.70
2023-03-04T19:29:02.035Z,12.10
2023-03-04T19:39:07.286Z,12.00
2023-03-04T19:49:10.452Z,10.20
2023-03-04T19:59:14.802Z,11.90
2023-03-04T20:09:19.583Z,11.70
2023-03-04T20:19:25.088Z,12.80
2023-03-04T20:29:29.089Z,15.00
2023-03-04T20:49:59.993Z,11.70
2023-03-04T21:00:08.295Z,12.50
2023-03-04T21:10:11.387Z,13.40
2023-03-04T21:20:15.449Z,11.30
2023-03-04T21:30:18.572Z,10.90
2023-03-04T21:40:21.609Z,12.30
2023-03-04T21:50:24.777Z,13.70
2023-03-04T22:00:27.812Z,13.30
2023-03-04T22:10:32.208Z,12.90
2023-03-04T22:20:37.171Z,14.80
2023-03-04T22:30:40.177Z,14.60
2023-03-04T22:40:43.353Z,13.70
2023-03-04T22:50:46.600Z,13.00
2023-03-04T23:00:49.659Z,12.00
2023-03-04T23:10:55.829Z,17.80
2023-03-04T23:20:59.124Z,9.20
2023-03-04T23:31:04.325Z,5.80
2023-03-04T23:41:12.944Z,4.50
